Time;durP1;ratioP1;P1;durP2;ratioP2;P2;SDS_P1;SDS_P2;PMS_P1;PMS_P2;Temp;Humidity;BMP_temperature;BMP_pressure;BME280_temperature;BME280_humidity;BME280_pressure;Samples;Min_cycle;Max_cycle;Signal;HPM_P1;HPM_P2
2021/06/16 04:45:51;;;;;;;11.15;6.00;;;;;;;;;;5434599;23;20057;-60
2021/06/16 04:48:17;;;;;;;13.38;5.20;;;;;;;;;;4875939;29;20144;-60
2021/06/16 04:50:43;;;;;;;10.00;5.65;;;;;;;;;;4876598;29;20081;-62
2021/06/16 04:53:09;;;;;;;9.85;5.72;;;;;;;;;;4876793;29;20476;-60
2021/06/16 04:55:36;;;;;;;9.82;5.80;;;;;;;;;;4876152;29;20473;-60
2021/06/16 04:58:02;;;;;;;9.73;5.88;;;;;;;;;;4876637;29;20025;-60
2021/06/16 05:00:28;;;;;;;13.73;9.70;;;;;;;;;;4875739;29;20036;-61
2021/06/16 05:02:55;;;;;;;9.32;6.50;;;;;;;;;;4876730;29;20093;-61
2021/06/16 05:05:21;;;;;;;10.55;5.03;;;;;;;;;;4876499;29;20025;-60
2021/06/16 05:07:47;;;;;;;9.50;5.50;;;;;;;;;;4876511;29;20059;-60
2021/06/16 05:10:13;;;;;;;9.63;5.32;;;;;;;;;;4875907;29;20021;-61
2021/06/16 05:12:39;;;;;;;14.80;9.65;;;;;;;;;;4859739;29;20037;-60
2021/06/16 05:15:06;;;;;;;10.13;5.57;;;;;;;;;;4878101;29;20113;-64
2021/06/16 05:17:32;;;;;;;8.85;4.50;;;;;;;;;;4880453;29;20447;-62
2021/06/16 05:19:58;;;;;;;8.52;4.93;;;;;;;;;;4879745;29;20028;-61
2021/06/16 05:22:26;;;;;;;8.98;4.63;;;;;;;;;;4879969;29;20051;-61
2021/06/16 05:24:53;;;;;;;10.18;4.97;;;;;;;;;;4863660;29;20451;-62
2021/06/16 05:27:19;;;;;;;9.20;4.65;;;;;;;;;;4880163;29;20473;-62
2021/06/16 05:29:45;;;;;;;9.48;4.95;;;;;;;;;;4879971;29;20029;-62
2021/06/16 05:32:12;;;;;;;10.85;4.57;;;;;;;;;;4879794;29;20126;-61
2021/06/16 05:34:38;;;;;;;6.10;4.75;;;;;;;;;;4880087;29;20089;-61
2021/06/16 05:37:06;;;;;;;8.35;4.53;;;;;;;;;;4879767;29;20689;-61
2021/06/16 05:39:32;;;;;;;8.95;5.28;;;;;;;;;;4879824;29;20495;-61
2021/06/16 05:41:59;;;;;;;8.57;5.18;;;;;;;;;;4879854;29;20092;-61
2021/06/16 05:44:25;;;;;;;10.77;5.72;;;;;;;;;;4879731;29;20470;-62
2021/06/16 05:46:51;;;;;;;6.90;5.18;;;;;;;;;;4879757;29;20557;-64
2021/06/16 05:49:17;;;;;;;6.75;5.10;;;;;;;;;;4879474;29;20039;-62
2021/06/16 05:51:43;;;;;;;8.05;4.97;;;;;;;;;;4879715;29;20044;-62
2021/06/16 05:54:10;;;;;;;12.23;5.03;;;;;;;;;;4879586;29;20036;-71
2021/06/16 05:56:37;;;;;;;12.48;5.40;;;;;;;;;;4880038;29;20036;-66
2021/06/16 05:59:03;;;;;;;9.55;4.80;;;;;;;;;;4879408;29;20108;-62
2021/06/16 06:01:29;;;;;;;8.43;5.03;;;;;;;;;;4879425;29;20029;-66
2021/06/16 06:03:55;;;;;;;9.68;5.20;;;;;;;;;;4879401;29;20032;-61
2021/06/16 06:06:21;;;;;;;9.65;4.97;;;;;;;;;;4879416;29;20390;-62
2021/06/16 06:08:47;;;;;;;8.68;4.90;;;;;;;;;;4879907;29;20093;-65
2021/06/16 06:11:13;;;;;;;14.10;5.15;;;;;;;;;;4879281;29;20056;-69
2021/06/16 06:13:39;;;;;;;12.02;4.68;;;;;;;;;;4879322;29;20025;-66
2021/06/16 06:16:05;;;;;;;9.43;4.70;;;;;;;;;;4878528;29;20041;-69
2021/06/16 06:18:32;;;;;;;8.75;4.60;;;;;;;;;;4879296;29;20104;-69
2021/06/16 06:20:58;;;;;;;9.52;4.70;;;;;;;;;;4878604;29;20037;-69
2021/06/16 06:23:24;;;;;;;7.45;4.93;;;;;;;;;;4879326;29;20552;-68
2021/06/16 06:25:50;;;;;;;7.25;5.00;;;;;;;;;;4878515;29;20087;-62
2021/06/16 06:28:16;;;;;;;7.95;5.25;;;;;;;;;;4879047;29;20505;-60
2021/06/16 06:30:42;;;;;;;14.15;5.65;;;;;;;;;;4878736;29;20044;-60
2021/06/16 06:33:08;;;;;;;10.98;5.40;;;;;;;;;;4878729;29;20029;-66
2021/06/16 06:35:34;;;;;;;11.10;4.70;;;;;;;;;;4878902;29;20048;-65
2021/06/16 06:38:01;;;;;;;12.45;5.07;;;;;;;;;;4879278;29;20029;-62
2021/06/16 06:40:27;;;;;;;9.68;4.75;;;;;;;;;;4878497;29;20036;-70
2021/06/16 06:42:53;;;;;;;9.63;5.32;;;;;;;;;;4878397;29;20187;-70
2021/06/16 06:45:19;;;;;;;8.52;4.88;;;;;;;;;;4867087;29;20041;-69
2021/06/16 06:47:45;;;;;;;10.20;4.95;;;;;;;;;;4867643;29;20105;-65
2021/06/16 06:50:14;;;;;;;8.60;4.90;;;;;;;;;;4877761;29;20025;-69
2021/06/16 06:52:40;;;;;;;9.88;4.65;;;;;;;;;;4878032;29;20040;-72
2021/06/16 06:55:06;;;;;;;11.48;5.53;;;;;;;;;;4878760;29;20494;-62
2021/06/16 06:57:32;;;;;;;8.95;5.22;;;;;;;;;;4878832;29;20131;-71
2021/06/16 06:59:58;;;;;;;9.52;5.00;;;;;;;;;;4878167;29;20508;-70
2021/06/16 07:02:25;;;;;;;14.60;5.93;;;;;;;;;;4878224;29;20478;-69
2021/06/16 07:04:51;;;;;;;8.80;5.03;;;;;;;;;;4877422;29;20033;-62
2021/06/16 07:07:18;;;;;;;7.55;4.95;;;;;;;;;;4877867;29;20108;-65
2021/06/16 07:09:46;;;;;;;7.80;4.22;;;;;;;;;;4877978;29;20040;-61
2021/06/16 07:12:13;;;;;;;10.23;4.82;;;;;;;;;;4878287;29;20120;-61
2021/06/16 07:14:39;;;;;;;8.98;4.93;;;;;;;;;;4877677;29;20115;-67
2021/06/16 07:17:06;;;;;;;8.18;4.78;;;;;;;;;;4878036;29;20057;-63
2021/06/16 07:19:32;;;;;;;7.88;4.65;;;;;;;;;;4877472;29;20630;-60
2021/06/16 07:21:58;;;;;;;7.63;4.70;;;;;;;;;;4877680;29;20489;-63
2021/06/16 07:24:24;;;;;;;6.43;4.35;;;;;;;;;;4877708;29;20060;-64
2021/06/16 07:26:51;;;;;;;10.82;4.43;;;;;;;;;;4877795;29;20374;-61
2021/06/16 07:29:17;;;;;;;10.15;5.22;;;;;;;;;;4876950;29;20465;-64
2021/06/16 07:31:43;;;;;;;8.98;4.80;;;;;;;;;;4876145;29;20088;-61
2021/06/16 07:34:09;;;;;;;8.93;5.18;;;;;;;;;;4877611;29;20025;-67
2021/06/16 07:36:36;;;;;;;10.75;4.53;;;;;;;;;;4877480;29;20037;-61
2021/06/16 07:39:02;;;;;;;7.10;4.45;;;;;;;;;;4876747;29;20040;-62
2021/06/16 07:41:28;;;;;;;8.23;4.22;;;;;;;;;;4877791;29;20362;-61
2021/06/16 07:43:54;;;;;;;7.30;4.63;;;;;;;;;;4877509;29;20461;-63
2021/06/16 07:46:20;;;;;;;9.10;4.72;;;;;;;;;;4876833;29;20520;-63
2021/06/16 07:48:46;;;;;;;7.28;4.85;;;;;;;;;;4877228;29;20032;-68
2021/06/16 07:51:12;;;;;;;8.40;4.18;;;;;;;;;;4876899;29;20037;-64
2021/06/16 07:53:40;;;;;;;9.80;4.85;;;;;;;;;;4876580;29;20035;-62
2021/06/16 07:56:06;;;;;;;9.50;4.78;;;;;;;;;;4877186;29;20021;-69
2021/06/16 07:58:32;;;;;;;11.10;4.72;;;;;;;;;;4877313;29;20036;-65
2021/06/16 08:00:58;;;;;;;7.47;4.45;;;;;;;;;;4877272;29;20032;-71
2021/06/16 08:03:24;;;;;;;12.02;4.25;;;;;;;;;;4876860;29;20029;-63
2021/06/16 08:05:51;;;;;;;8.85;4.68;;;;;;;;;;4876799;29;20037;-70
2021/06/16 08:08:18;;;;;;;10.35;4.47;;;;;;;;;;4877046;29;20021;-72
2021/06/16 08:10:44;;;;;;;10.07;4.68;;;;;;;;;;4877268;29;20060;-63
2021/06/16 08:13:10;;;;;;;11.32;4.80;;;;;;;;;;4877057;29;20104;-63
2021/06/16 08:15:37;;;;;;;11.30;4.63;;;;;;;;;;4876836;29;20040;-66
2021/06/16 08:18:03;;;;;;;7.18;4.18;;;;;;;;;;4876753;29;20036;-61
2021/06/16 08:20:29;;;;;;;10.05;4.20;;;;;;;;;;4877049;29;20052;-60
2021/06/16 08:22:55;;;;;;;7.50;4.07;;;;;;;;;;4876771;29;20506;-63
2021/06/16 08:25:21;;;;;;;11.93;4.55;;;;;;;;;;4876674;29;20098;-66
2021/06/16 08:27:47;;;;;;;8.90;4.93;;;;;;;;;;4876412;29;20104;-67
2021/06/16 08:30:15;;;;;;;6.85;4.55;;;;;;;;;;4876921;29;20048;-65
2021/06/16 08:32:42;;;;;;;9.68;5.07;;;;;;;;;;4876405;29;20453;-61
2021/06/16 08:35:08;;;;;;;8.30;4.25;;;;;;;;;;4876632;29;20044;-62
2021/06/16 08:37:34;;;;;;;10.23;4.80;;;;;;;;;;4877011;29;20064;-62
2021/06/16 08:40:01;;;;;;;9.73;4.65;;;;;;;;;;4876276;29;20056;-66
2021/06/16 08:42:27;;;;;;;7.00;4.13;;;;;;;;;;4876790;29;20029;-61
2021/06/16 08:44:55;;;;;;;11.73;4.88;;;;;;;;;;4876253;29;20064;-63
2021/06/16 08:47:22;;;;;;;9.23;4.60;;;;;;;;;;4875650;29;20091;-61
2021/06/16 08:49:48;;;;;;;7.53;4.40;;;;;;;;;;4879613;29;20104;-65
2021/06/16 08:52:15;;;;;;;8.52;4.70;;;;;;;;;;4882276;29;20556;-63
2021/06/16 08:54:41;;;;;;;7.07;4.80;;;;;;;;;;4883059;29;20028;-71
2021/06/16 08:57:07;;;;;;;10.85;5.05;;;;;;;;;;4883081;29;20033;-65
2021/06/16 08:59:34;;;;;;;13.55;4.97;;;;;;;;;;4882981;29;20037;-71
2021/06/16 09:02:00;;;;;;;7.78;4.70;;;;;;;;;;4881210;29;20025;-69
2021/06/16 09:04:42;;;;;;;11.65;4.80;;;;;;;;;;4880927;29;20033;-65
2021/06/16 09:07:11;;;;;;;8.35;4.20;;;;;;;;;;4883382;29;20040;-62
2021/06/16 09:09:38;;;;;;;6.40;4.25;;;;;;;;;;4879829;29;20021;-68
2021/06/16 09:12:06;;;;;;;7.15;3.90;;;;;;;;;;4864580;29;20049;-69
2021/06/16 09:14:32;;;;;;;13.38;4.97;;;;;;;;;;4882021;29;20091;-61
2021/06/16 09:17:03;;;;;;;14.48;6.82;;;;;;;;;;4878079;29;20029;-67
2021/06/16 09:19:31;;;;;;;11.60;5.97;;;;;;;;;;4861603;29;20029;-67
2021/06/16 09:22:06;;;;;;;8.23;4.05;;;;;;;;;;4864228;29;20029;-70
2021/06/16 09:24:42;;;;;;;7.18;3.88;;;;;;;;;;4864712;29;20085;-66
2021/06/16 09:27:08;;;;;;;7.38;3.78;;;;;;;;;;4864206;29;20120;-70
2021/06/16 09:29:34;;;;;;;5.40;3.58;;;;;;;;;;4865070;29;20114;-66
2021/06/16 09:32:04;;;;;;;10.82;4.25;;;;;;;;;;4867141;29;20096;-67
2021/06/16 09:34:30;;;;;;;8.38;4.05;;;;;;;;;;4863594;29;20034;-70
2021/06/16 09:36:58;;;;;;;11.52;6.63;;;;;;;;;;4864123;29;20136;-67
2021/06/16 09:39:25;;;;;;;9.15;4.57;;;;;;;;;;4863526;29;20042;-69
2021/06/16 09:41:52;;;;;;;7.35;4.05;;;;;;;;;;4863781;29;20034;-69
2021/06/16 09:44:37;;;;;;;9.82;3.65;;;;;;;;;;4870218;29;20085;-64
2021/06/16 09:47:11;;;;;;;7.65;3.40;;;;;;;;;;4874316;29;20053;-64
2021/06/16 09:49:54;;;;;;;9.02;3.88;;;;;;;;;;4872307;29;20026;-66
2021/06/16 09:52:29;;;;;;;5.25;3.50;;;;;;;;;;4876981;29;20043;-64
2021/06/16 09:54:55;;;;;;;10.23;3.78;;;;;;;;;;4875595;29;20571;-63
2021/06/16 09:57:21;;;;;;;4.82;3.47;;;;;;;;;;4872722;29;20060;-69
2021/06/16 09:59:49;;;;;;;6.85;3.10;;;;;;;;;;4873566;29;20060;-68
2021/06/16 10:02:16;;;;;;;5.97;3.17;;;;;;;;;;4876625;29;20489;-70
2021/06/16 10:04:47;;;;;;;5.95;3.72;;;;;;;;;;4877007;29;20033;-63
2021/06/16 10:07:21;;;;;;;8.20;3.30;;;;;;;;;;4873915;29;20037;-70
2021/06/16 10:09:50;;;;;;;5.85;3.30;;;;;;;;;;4879671;29;20084;-68
2021/06/16 10:12:16;;;;;;;7.70;3.90;;;;;;;;;;4879189;29;20088;-61
2021/06/16 10:14:42;;;;;;;5.85;3.25;;;;;;;;;;4879643;29;20025;-59
2021/06/16 10:17:09;;;;;;;7.50;3.53;;;;;;;;;;4878800;29;20033;-62
2021/06/16 10:19:35;;;;;;;9.50;3.20;;;;;;;;;;4878830;29;20041;-61
2021/06/16 10:22:03;;;;;;;5.60;3.03;;;;;;;;;;4879699;29;20065;-64
2021/06/16 10:24:29;;;;;;;6.65;2.88;;;;;;;;;;4879032;29;20064;-62
2021/06/16 10:26:56;;;;;;;5.40;2.33;;;;;;;;;;4876617;29;20033;-60
2021/06/16 10:29:23;;;;;;;4.38;2.10;;;;;;;;;;4879751;29;20032;-65
2021/06/16 10:31:49;;;;;;;5.45;2.38;;;;;;;;;;4876297;29;20059;-61
2021/06/16 10:34:15;;;;;;;7.00;3.00;;;;;;;;;;4879537;29;20116;-66
2021/06/16 10:37:01;;;;;;;5.80;3.95;;;;;;;;;;4879445;29;20029;-68
2021/06/16 10:39:27;;;;;;;7.95;3.40;;;;;;;;;;4878561;29;20036;-69
2021/06/16 10:41:55;;;;;;;6.72;3.10;;;;;;;;;;4879275;29;20362;-69
2021/06/16 10:44:22;;;;;;;5.30;2.97;;;;;;;;;;4878696;29;20112;-58
2021/06/16 10:46:55;;;;;;;4.65;2.53;;;;;;;;;;4875647;29;20083;-61
2021/06/16 10:49:33;;;;;;;5.75;2.70;;;;;;;;;;4879048;29;20090;-61
2021/06/16 10:52:00;;;;;;;7.05;2.80;;;;;;;;;;4878798;29;20048;-61
2021/06/16 10:54:32;;;;;;;11.13;3.20;;;;;;;;;;4877307;29;20450;-61
2021/06/16 10:56:59;;;;;;;5.68;2.50;;;;;;;;;;4879161;29;20040;-67
2021/06/16 10:59:43;;;;;;;4.68;2.33;;;;;;;;;;4874679;29;20077;-60
2021/06/16 11:02:11;;;;;;;6.07;3.00;;;;;;;;;;4876895;29;20124;-59
2021/06/16 11:04:41;;;;;;;3.63;2.80;;;;;;;;;;4878173;29;20039;-67
2021/06/16 11:07:26;;;;;;;4.80;3.38;;;;;;;;;;4878472;29;20037;-61
2021/06/16 11:10:08;;;;;;;3.95;2.63;;;;;;;;;;4878386;29;20500;-61
2021/06/16 11:12:38;;;;;;;5.35;2.60;;;;;;;;;;4878088;29;20044;-60
2021/06/16 11:15:05;;;;;;;5.22;2.60;;;;;;;;;;4877521;29;20540;-60
2021/06/16 11:17:31;;;;;;;5.85;2.17;;;;;;;;;;4878420;29;20221;-61
2021/06/16 11:19:58;;;;;;;2.92;1.95;;;;;;;;;;4878052;29;20102;-62
2021/06/16 11:22:24;;;;;;;4.32;1.73;;;;;;;;;;4877763;29;20155;-64
2021/06/16 11:25:04;;;;;;;4.00;2.10;;;;;;;;;;4878454;29;20041;-63
2021/06/16 11:27:49;;;;;;;4.80;1.90;;;;;;;;;;4878156;29;20578;-66
2021/06/16 11:30:15;;;;;;;4.55;1.90;;;;;;;;;;4877570;29;20041;-67
2021/06/16 11:32:41;;;;;;;6.47;1.80;;;;;;;;;;4877284;29;20028;-65
2021/06/16 11:35:07;;;;;;;3.35;1.83;;;;;;;;;;4878032;29;20071;-62
2021/06/16 11:37:52;;;;;;;3.97;1.65;;;;;;;;;;4877277;29;20148;-67
2021/06/16 11:40:19;;;;;;;4.07;1.77;;;;;;;;;;4877531;29;20101;-60
2021/06/16 11:42:45;;;;;;;6.05;3.38;;;;;;;;;;4860879;29;20052;-59
2021/06/16 11:45:11;;;;;;;6.07;2.22;;;;;;;;;;4877320;29;20049;-60
2021/06/16 11:47:37;;;;;;;4.68;1.67;;;;;;;;;;4877157;29;20049;-65
2021/06/16 11:50:03;;;;;;;3.95;1.73;;;;;;;;;;4877506;29;20039;-62
2021/06/16 11:52:30;;;;;;;3.80;1.70;;;;;;;;;;4876229;29;20048;-69
2021/06/16 11:54:56;;;;;;;5.65;2.28;;;;;;;;;;4877466;29;20033;-63
2021/06/16 11:57:26;;;;;;;5.30;1.70;;;;;;;;;;4877694;29;20164;-59
2021/06/16 11:59:53;;;;;;;4.15;1.73;;;;;;;;;;4876619;29;20037;-61
2021/06/16 12:02:20;;;;;;;6.43;1.90;;;;;;;;;;4868894;29;20133;-59
2021/06/16 12:04:49;;;;;;;3.03;1.65;;;;;;;;;;4855792;29;20045;-62
2021/06/16 12:07:24;;;;;;;5.13;1.90;;;;;;;;;;4874751;29;20029;-65
2021/06/16 12:09:52;;;;;;;4.05;1.65;;;;;;;;;;4876485;29;20017;-62
2021/06/16 12:12:19;;;;;;;3.53;1.83;;;;;;;;;;4875639;29;20148;-60
2021/06/16 12:14:45;;;;;;;4.97;2.17;;;;;;;;;;4871861;29;20025;-60
2021/06/16 12:17:12;;;;;;;2.95;1.88;;;;;;;;;;4871085;29;20039;-60
2021/06/16 12:19:39;;;;;;;3.10;1.80;;;;;;;;;;4874539;29;20348;-63
2021/06/16 12:22:08;;;;;;;5.13;1.88;;;;;;;;;;4874904;29;20131;-58
2021/06/16 12:24:35;;;;;;;3.72;2.45;;;;;;;;;;4874064;29;20509;-63
2021/06/16 12:27:03;;;;;;;4.05;1.80;;;;;;;;;;4875814;29;20048;-64
2021/06/16 12:29:30;;;;;;;2.15;1.40;;;;;;;;;;4872027;29;20037;-64
2021/06/16 12:31:59;;;;;;;6.15;2.00;;;;;;;;;;4863269;29;20397;-62
2021/06/16 12:37:16;;;;;;;4.03;1.90;;;;;;;;;;4875957;29;20044;-63
2021/06/16 12:40:02;;;;;;;4.60;2.10;;;;;;;;;;4854953;29;20441;-69
2021/06/16 12:42:37;;;;;;;3.63;2.00;;;;;;;;;;4874115;29;20037;-69
2021/06/16 12:45:04;;;;;;;5.20;2.13;;;;;;;;;;4866709;29;20029;-69
2021/06/16 12:47:33;;;;;;;3.05;2.17;;;;;;;;;;4857632;29;20053;-62
2021/06/16 12:50:00;;;;;;;8.48;2.47;;;;;;;;;;4854921;29;20021;-61
2021/06/16 12:52:29;;;;;;;6.60;2.70;;;;;;;;;;4856901;29;20409;-67
2021/06/16 12:54:55;;;;;;;4.18;1.90;;;;;;;;;;4857620;29;20022;-68
2021/06/16 12:57:22;;;;;;;3.67;1.83;;;;;;;;;;4857643;29;20033;-66
2021/06/16 12:59:52;;;;;;;3.90;1.83;;;;;;;;;;4857601;29;20613;-67
2021/06/16 13:02:29;;;;;;;3.88;1.83;;;;;;;;;;4858369;29;20623;-70
2021/06/16 13:04:55;;;;;;;5.07;1.83;;;;;;;;;;4857939;29;20037;-68
2021/06/16 13:07:22;;;;;;;3.35;1.70;;;;;;;;;;4857908;29;20113;-64
2021/06/16 13:09:58;;;;;;;4.95;1.83;;;;;;;;;;4857655;29;20038;-65
2021/06/16 13:12:24;;;;;;;5.82;1.60;;;;;;;;;;4857862;29;20026;-67
2021/06/16 13:14:57;;;;;;;5.05;1.98;;;;;;;;;;4857594;29;20064;-69
2021/06/16 13:17:24;;;;;;;6.82;1.92;;;;;;;;;;4857212;29;20033;-68
2021/06/16 13:19:57;;;;;;;2.45;1.30;;;;;;;;;;4858011;29;20061;-66
2021/06/16 13:22:36;;;;;;;3.65;1.52;;;;;;;;;;4856553;29;20038;-68
2021/06/16 13:25:04;;;;;;;2.75;1.55;;;;;;;;;;4855109;29;20041;-65
2021/06/16 13:27:30;;;;;;;2.35;1.65;;;;;;;;;;4853923;29;20041;-69
2021/06/16 13:30:00;;;;;;;3.17;1.65;;;;;;;;;;4856666;29;20030;-64
2021/06/16 13:32:26;;;;;;;4.55;1.88;;;;;;;;;;4856791;29;20049;-69
2021/06/16 13:34:52;;;;;;;4.78;1.80;;;;;;;;;;4856559;29;20590;-63
2021/06/16 13:37:18;;;;;;;6.07;1.60;;;;;;;;;;4859397;29;20022;-67
2021/06/16 13:39:44;;;;;;;3.42;1.70;;;;;;;;;;4860120;29;20101;-68
2021/06/16 13:42:19;;;;;;;3.78;1.60;;;;;;;;;;4860870;29;20052;-66
2021/06/16 13:44:45;;;;;;;4.43;2.00;;;;;;;;;;4860042;29;20081;-67
2021/06/16 13:47:11;;;;;;;3.40;1.90;;;;;;;;;;4860215;29;20524;-68
2021/06/16 13:49:37;;;;;;;5.38;1.67;;;;;;;;;;4860756;29;20017;-65
2021/06/16 13:52:03;;;;;;;5.50;1.90;;;;;;;;;;4859400;29;20049;-62
2021/06/16 13:54:30;;;;;;;4.88;1.85;;;;;;;;;;4858230;29;20386;-66
2021/06/16 13:56:56;;;;;;;4.00;1.80;;;;;;;;;;4860295;29;20378;-67
2021/06/16 13:59:22;;;;;;;4.10;1.90;;;;;;;;;;4855180;29;20109;-59
2021/06/16 14:01:48;;;;;;;3.78;1.75;;;;;;;;;;4859127;29;20037;-69
2021/06/16 14:04:14;;;;;;;3.80;1.60;;;;;;;;;;4858116;29;20104;-61
2021/06/16 14:06:42;;;;;;;5.55;2.30;;;;;;;;;;4858882;29;20657;-66
2021/06/16 14:09:13;;;;;;;3.88;1.80;;;;;;;;;;4857629;29;20085;-65
2021/06/16 14:11:40;;;;;;;3.08;1.88;;;;;;;;;;4856481;29;20034;-68
2021/06/16 14:14:06;;;;;;;5.43;2.03;;;;;;;;;;4860016;29;20032;-63
2021/06/16 14:16:32;;;;;;;2.38;1.70;;;;;;;;;;4860305;29;20065;-64
2021/06/16 14:18:58;;;;;;;3.80;1.80;;;;;;;;;;4859629;29;20038;-69
2021/06/16 14:21:25;;;;;;;2.08;1.45;;;;;;;;;;4857381;29;20999;-66
2021/06/16 14:23:51;;;;;;;4.95;1.52;;;;;;;;;;4858140;29;20030;-63
2021/06/16 14:26:17;;;;;;;4.45;1.88;;;;;;;;;;4859948;29;20132;-64
2021/06/16 14:28:43;;;;;;;2.35;1.95;;;;;;;;;;4860112;29;20105;-69
2021/06/16 14:31:09;;;;;;;4.93;2.00;;;;;;;;;;4860272;29;20556;-70
2021/06/16 14:33:35;;;;;;;3.08;1.67;;;;;;;;;;4859788;29;20022;-67
2021/06/16 14:36:02;;;;;;;4.80;1.58;;;;;;;;;;4860317;29;20029;-63
2021/06/16 14:38:28;;;;;;;4.07;1.85;;;;;;;;;;4859935;29;20375;-62
2021/06/16 14:40:54;;;;;;;2.92;1.90;;;;;;;;;;4859515;29;20478;-70
2021/06/16 14:43:20;;;;;;;7.22;1.92;;;;;;;;;;4859857;29;20037;-63
2021/06/16 14:45:47;;;;;;;2.53;1.67;;;;;;;;;;4854994;29;20080;-69
2021/06/16 14:48:13;;;;;;;2.75;1.55;;;;;;;;;;4868114;29;20064;-62
2021/06/16 14:50:39;;;;;;;3.03;1.52;;;;;;;;;;4868373;29;20040;-63
2021/06/16 14:53:06;;;;;;;6.20;1.83;;;;;;;;;;4868064;29;20087;-66
2021/06/16 14:55:32;;;;;;;2.30;1.40;;;;;;;;;;4867383;29;20513;-67
2021/06/16 14:57:58;;;;;;;3.60;1.67;;;;;;;;;;4861661;29;20025;-64
2021/06/16 15:00:24;;;;;;;5.28;1.60;;;;;;;;;;4871057;29;20100;-66
2021/06/16 15:02:50;;;;;;;3.15;1.38;;;;;;;;;;4866532;29;20474;-63
2021/06/16 15:05:17;;;;;;;5.93;1.65;;;;;;;;;;4877119;29;20045;-64
2021/06/16 15:07:44;;;;;;;2.85;1.60;;;;;;;;;;4877601;29;20480;-67
2021/06/16 15:10:11;;;;;;;5.55;1.88;;;;;;;;;;4865433;29;20080;-68
2021/06/16 15:12:37;;;;;;;4.32;1.70;;;;;;;;;;4862092;29;20732;-62
2021/06/16 15:15:03;;;;;;;4.18;1.80;;;;;;;;;;4863250;29;20096;-68
2021/06/16 15:17:29;;;;;;;2.33;1.40;;;;;;;;;;4871949;29;20132;-68
2021/06/16 15:19:55;;;;;;;5.45;1.73;;;;;;;;;;4872754;29;20040;-67
2021/06/16 15:22:22;;;;;;;2.50;1.30;;;;;;;;;;4872934;29;20052;-62
2021/06/16 15:24:49;;;;;;;3.08;1.30;;;;;;;;;;4871759;29;20032;-64
2021/06/16 15:27:15;;;;;;;4.15;1.50;;;;;;;;;;4867265;29;20560;-63
2021/06/16 15:29:41;;;;;;;2.38;1.20;;;;;;;;;;4875376;29;20037;-70
2021/06/16 15:32:07;;;;;;;2.50;1.45;;;;;;;;;;4874969;29;20031;-65
2021/06/16 15:34:35;;;;;;;2.78;1.58;;;;;;;;;;4876252;29;20025;-63
2021/06/16 15:37:01;;;;;;;4.72;1.60;;;;;;;;;;4869334;29;21569;-64
2021/06/16 15:39:27;;;;;;;6.15;1.55;;;;;;;;;;4871046;29;20033;-63
2021/06/16 15:41:54;;;;;;;3.10;1.50;;;;;;;;;;4868238;29;20036;-67
2021/06/16 15:44:20;;;;;;;2.60;1.52;;;;;;;;;;4870713;29;20188;-67
2021/06/16 15:46:47;;;;;;;3.10;1.80;;;;;;;;;;4859733;29;20398;-66
2021/06/16 15:49:13;;;;;;;6.10;1.70;;;;;;;;;;4856206;29;20034;-69
2021/06/16 15:51:39;;;;;;;6.07;2.08;;;;;;;;;;4857766;29;20374;-69
2021/06/16 15:54:05;;;;;;;4.38;1.50;;;;;;;;;;4842244;29;20382;-65
2021/06/16 15:56:32;;;;;;;5.45;1.98;;;;;;;;;;4856821;29;20477;-70
2021/06/16 15:58:58;;;;;;;5.20;1.90;;;;;;;;;;4854138;29;20034;-69
2021/06/16 16:01:24;;;;;;;3.60;1.75;;;;;;;;;;4857683;29;20091;-64
2021/06/16 16:03:50;;;;;;;3.33;1.73;;;;;;;;;;4855910;29;20088;-71
2021/06/16 16:06:16;;;;;;;4.20;2.13;;;;;;;;;;4853051;29;20125;-69
2021/06/16 16:08:43;;;;;;;4.88;1.75;;;;;;;;;;4856323;29;20602;-66
2021/06/16 16:11:09;;;;;;;4.80;1.90;;;;;;;;;;4858951;29;20071;-63
2021/06/16 16:13:35;;;;;;;3.40;1.92;;;;;;;;;;4855672;29;20071;-62
2021/06/16 16:16:01;;;;;;;4.05;1.60;;;;;;;;;;4857352;29;20045;-64
2021/06/16 16:18:27;;;;;;;5.80;1.85;;;;;;;;;;4855446;29;20048;-68
2021/06/16 16:20:54;;;;;;;3.60;1.50;;;;;;;;;;4854268;29;20030;-62
2021/06/16 16:23:21;;;;;;;4.43;1.75;;;;;;;;;;4855532;29;20162;-64
2021/06/16 16:25:47;;;;;;;5.55;1.60;;;;;;;;;;4852767;29;20052;-67
2021/06/16 16:28:14;;;;;;;3.35;1.63;;;;;;;;;;4857443;29;20033;-68
2021/06/16 16:30:41;;;;;;;5.50;2.03;;;;;;;;;;4857352;29;20038;-67
2021/06/16 16:33:08;;;;;;;2.97;1.60;;;;;;;;;;4858247;29;20028;-68
2021/06/16 16:35:36;;;;;;;4.32;2.08;;;;;;;;;;4857098;29;20765;-68
2021/06/16 16:38:04;;;;;;;3.63;1.92;;;;;;;;;;4855925;29;20025;-62
2021/06/16 16:40:30;;;;;;;5.70;2.30;;;;;;;;;;4857528;29;20046;-65
2021/06/16 16:42:56;;;;;;;2.80;1.95;;;;;;;;;;4857274;29;20170;-66
2021/06/16 16:45:23;;;;;;;4.53;1.92;;;;;;;;;;4855310;29;20040;-70
2021/06/16 16:47:49;;;;;;;4.20;1.73;;;;;;;;;;4873199;29;20052;-70
2021/06/16 16:50:17;;;;;;;4.97;1.88;;;;;;;;;;4875820;29;20025;-70
2021/06/16 16:52:43;;;;;;;2.78;1.50;;;;;;;;;;4876509;29;20112;-71
2021/06/16 16:55:10;;;;;;;3.85;1.70;;;;;;;;;;4876202;29;20508;-67
2021/06/16 16:57:36;;;;;;;5.15;2.20;;;;;;;;;;4875914;29;20032;-63
2021/06/16 17:00:05;;;;;;;4.93;2.40;;;;;;;;;;4875893;29;20025;-69
2021/06/16 17:02:31;;;;;;;3.33;2.00;;;;;;;;;;4876311;29;20025;-64
2021/06/16 17:04:57;;;;;;;4.25;2.00;;;;;;;;;;4857646;29;20430;-64
2021/06/16 17:07:23;;;;;;;3.80;1.88;;;;;;;;;;4876691;29;20032;-66
2021/06/16 17:09:51;;;;;;;3.92;1.90;;;;;;;;;;4876178;29;20029;-72
2021/06/16 17:12:17;;;;;;;3.88;2.00;;;;;;;;;;4878753;29;20045;-67
2021/06/16 17:14:44;;;;;;;5.22;2.20;;;;;;;;;;4876758;29;20021;-68
2021/06/16 17:17:10;;;;;;;5.22;2.53;;;;;;;;;;4880316;29;20057;-69
2021/06/16 17:19:36;;;;;;;4.57;1.80;;;;;;;;;;4878406;29;20393;-69
2021/06/16 17:22:03;;;;;;;3.47;1.65;;;;;;;;;;4879743;29;20140;-68
2021/06/16 17:24:29;;;;;;;6.10;1.95;;;;;;;;;;4879727;29;20121;-70
2021/06/16 17:26:55;;;;;;;3.60;1.80;;;;;;;;;;4878474;29;20048;-70
2021/06/16 17:29:21;;;;;;;6.68;1.67;;;;;;;;;;4880121;29;20040;-68
2021/06/16 17:31:47;;;;;;;5.00;2.03;;;;;;;;;;4879547;29;20091;-69
2021/06/16 17:34:15;;;;;;;8.05;2.35;;;;;;;;;;4878851;29;20388;-63
2021/06/16 17:36:41;;;;;;;4.38;1.65;;;;;;;;;;4879773;29;20176;-68
2021/06/16 17:39:08;;;;;;;4.13;1.77;;;;;;;;;;4879933;29;20067;-64
2021/06/16 17:41:35;;;;;;;4.50;1.80;;;;;;;;;;4879372;29;20789;-67
2021/06/16 17:44:01;;;;;;;6.50;2.20;;;;;;;;;;4879711;29;20085;-69
2021/06/16 17:46:27;;;;;;;3.00;1.85;;;;;;;;;;4879503;29;20053;-70
2021/06/16 17:48:55;;;;;;;8.10;2.28;;;;;;;;;;4879166;29;20021;-67
2021/06/16 17:51:21;;;;;;;5.00;1.98;;;;;;;;;;4878131;29;20033;-68
2021/06/16 17:53:48;;;;;;;4.15;2.13;;;;;;;;;;4878566;29;20036;-69
2021/06/16 17:56:15;;;;;;;5.22;2.03;;;;;;;;;;4877965;29;20120;-70
2021/06/16 17:58:41;;;;;;;4.20;2.10;;;;;;;;;;4878665;29;20028;-67
2021/06/16 18:01:07;;;;;;;7.22;2.28;;;;;;;;;;4876238;29;20696;-67
2021/06/16 18:03:35;;;;;;;3.55;2.10;;;;;;;;;;4878759;29;20121;-68
2021/06/16 18:06:01;;;;;;;3.45;2.35;;;;;;;;;;4878698;29;20074;-70
2021/06/16 18:08:27;;;;;;;5.65;2.08;;;;;;;;;;4877875;29;20025;-69
2021/06/16 18:10:53;;;;;;;4.13;2.25;;;;;;;;;;4856775;29;20037;-66
2021/06/16 18:13:19;;;;;;;4.68;2.25;;;;;;;;;;4878036;29;20723;-68
2021/06/16 18:15:45;;;;;;;8.93;3.15;;;;;;;;;;4877905;29;20041;-68
2021/06/16 18:18:11;;;;;;;8.07;3.92;;;;;;;;;;4879203;29;20035;-67
2021/06/16 18:20:38;;;;;;;6.68;4.63;;;;;;;;;;4878904;29;20040;-68
2021/06/16 18:23:05;;;;;;;8.88;4.40;;;;;;;;;;4878239;29;20450;-67
2021/06/16 18:25:32;;;;;;;8.90;5.85;;;;;;;;;;4878344;29;20048;-67
2021/06/16 18:27:58;;;;;;;9.55;3.72;;;;;;;;;;4878469;29;20505;-67
2021/06/16 18:30:29;;;;;;;8.07;4.18;;;;;;;;;;4878277;29;20025;-65
2021/06/16 18:32:56;;;;;;;8.68;3.53;;;;;;;;;;4875076;29;20388;-67
2021/06/16 18:35:23;;;;;;;8.25;4.90;;;;;;;;;;4877450;29;20025;-68
2021/06/16 18:37:50;;;;;;;8.35;3.67;;;;;;;;;;4877245;29;20140;-67
2021/06/16 18:40:17;;;;;;;10.18;5.38;;;;;;;;;;4874435;29;20025;-67
2021/06/16 18:42:43;;;;;;;8.70;5.35;;;;;;;;;;4876960;29;20373;-67
2021/06/16 18:45:09;;;;;;;7.40;4.93;;;;;;;;;;4877015;29;20693;-68
2021/06/16 18:47:36;;;;;;;9.43;4.25;;;;;;;;;;4876986;29;20045;-67
2021/06/16 18:50:02;;;;;;;6.55;3.22;;;;;;;;;;4877392;29;20430;-66
2021/06/16 18:52:28;;;;;;;8.73;3.28;;;;;;;;;;4875831;29;20731;-67
2021/06/16 18:54:54;;;;;;;6.68;3.50;;;;;;;;;;4876908;29;20017;-68
2021/06/16 18:57:20;;;;;;;6.28;3.85;;;;;;;;;;4875669;29;20029;-69
2021/06/16 18:59:46;;;;;;;8.43;4.25;;;;;;;;;;4876075;29;20103;-65
2021/06/16 19:02:21;;;;;;;8.63;4.40;;;;;;;;;;4876699;29;20055;-67
2021/06/16 19:07:14;;;;;;;8.60;4.63;;;;;;;;;;4872676;29;20653;-67
2021/06/16 19:09:41;;;;;;;8.00;5.25;;;;;;;;;;4875439;29;20148;-68
2021/06/16 19:12:08;;;;;;;9.27;4.82;;;;;;;;;;4875105;29;20043;-64
2021/06/16 19:14:34;;;;;;;8.20;5.82;;;;;;;;;;4861607;29;20112;-64
2021/06/16 19:17:01;;;;;;;9.55;5.65;;;;;;;;;;4874007;29;20033;-64
2021/06/16 19:19:27;;;;;;;11.68;5.65;;;;;;;;;;4876740;29;20507;-65
2021/06/16 19:21:54;;;;;;;10.32;4.72;;;;;;;;;;4877503;29;20113;-65
2021/06/16 19:24:22;;;;;;;10.60;5.75;;;;;;;;;;4877237;29;20112;-65
2021/06/16 19:26:49;;;;;;;10.82;5.13;;;;;;;;;;4877442;29;20045;-68
2021/06/16 19:29:15;;;;;;;16.30;8.13;;;;;;;;;;4877640;29;20474;-70
2021/06/16 19:31:42;;;;;;;12.80;6.70;;;;;;;;;;4877437;29;20471;-68